Terminal Aerodrome Forecast
Issued by NWS Goodland, KS

Current Version | Previous Version | Text Only | Print | Product List | Glossary On
Versions: 1 2 3 4 5 6 7 8 9 10 11 12 13 14 15
000
FTUS43 KGLD 202320
TAFGLD
TAF
KGLD 202320Z 2100/2124 30007KT P6SM SCT250
     FM211200 30012KT P6SM SCT050 BKN080
     FM211400 34016G24KT P6SM SCT050 BKN080
     FM211800 02017G26KT P6SM BKN040
     FM212100 36011KT P6SM BKN040=

USA.gov is the U.S. government's official web portal to all federal, state and local government web resources and services.